メインページ
METAR-TAF:

METAR-TAF

空港 :

ドバイ, アラブ首長国連邦

ドバイ国際空港

緯度: 25-15-10N, 経度: 055-21-52E, 海抜: 8m

現時点の気象観測

当レポートは6分前の13:00(UTC)に作成
の風 11kt、北西からの間で変化する
気温 26°C
湿度 58%
気圧 1016 hPa
視程10km以上
1,500メートル以下は雲なし、積乱雲なし

METAR: OMDB 241300Z 35011KT 310V010 CAVOK 26/17 Q1016 NOSIG

時間: 17:06 (13:06 UTC)

予報

当レポートは2時間12分前の10:54(UTC)に作成
予報は24日の 12時(UTC)から 25日の 18時(UTC)まで有効
北西の風 12kt
視程10km以上
1,500メートル以下は雲なし、積乱雲なし
確率 30%
25日の 00時(UTC)から 25日の 05時(UTC)まで
南西の風 5kt
確率 30% :
25日の 06時(UTC)から 25日の 12時(UTC)まで一時的に
西/北西の風 15kt、最大25ktの突風を伴う

TAF: OMDB 241054Z 2412/2518 32012KT CAVOK PROB30 2500/2505 23005KT PROB30 TEMPO 2506/2512 30015G25KT

4,000以上の空港の気象観測と天気予報(METAR報とTAF報)

利用可能な観測所は地図上に黄色い丸と赤い丸で示す。

丸の上にカーソルを重ねると観測所名を参照できる。

次にクリックすると気象観測と天気予報を参照できる。

マップの切り替え:黒色「×」印の緑ボタンをクリックして拡大、「-」印の緑ボタンをクリックして縮小、緑色の三角印をクリックして隣りの地図に切り替え


METAR-TAF: